NEODyS-2

Near Earth Objects - Dynamic Site
NEODyS ∴ Observatories ∴ Site 691 ∴ Obs & residuals
Contact »
691  ▹ 
OBSERVATIONS AND RESIDUALS

691-Steward Observatory, Kitt Peak-Spacewatch

Detections | Residuals | Detections & Residuals

[1-200] [201-400] [401-600] [601-800] [801-1000] [1001-1200] [1201-1400] [1401-1600] [1601-1800] [1801-2000] [2001-2200] [2201-2400] [2401-2600] [2601-2800] [2801-3000] [3001-3200] [3201-3400] [3401-3600] [3601-3800] [3801-4000] [4001-4200] [4201-4400] [4401-4600] [4601-4800] [4801-5000] [5001-5200] [5201-5400] [5401-5600] [5601-5800] [5801-6000] [6001-6200] [6201-6400] [6401-6600] [6601-6800] [6801-7000] [7001-7200] [7201-7400] [7401-7600] [7601-7800] [7801-8000] [8001-8200] [8201-8400] [8401-8600] [8601-8800] [8801-9000] [9001-9200] [9201-9400] [9401-9600] [9601-9800] [9801-10000] [10001-10200] [10201-10400] [10401-10600] [10601-10800] [10801-11000] [11001-11200] [11201-11400] [11401-11600] [11601-11800] [11801-12000] [12001-12200] [12201-12400] [12401-12600] [12601-12800] [12801-13000] [13001-13200] [13201-13400] [13401-13600] [13601-13800] [13801-14000] [14001-14200] [14201-14400] [14401-14600] [14601-14800] [14801-15000] [15001-15200] [15201-15400] [15401-15600] [15601-15800] [15801-16000] [16001-16200] [16201-16400] [16401-16600] [16601-16800] [16801-17000] [17001-17200] [17201-17400] [17401-17600] [17601-17800] [17801-18000] [18001-18200] [18201-18400] [18401-18600] [18601-18800] [18801-19000] [19001-19200] [19201-19400] [19401-19600] [19601-19800] [19801-20000] [20001-20200] [20201-20400] [20401-20600] [20601-20800] [20801-21000] [21001-21200] [21201-21400] [21401-21600] [21601-21800] [21801-22000] [22001-22200] [22201-22400] [22401-22600] [22601-22800] [22801-23000] [23001-23200] [23201-23400] [23401-23600] [23601-23800] [23801-24000] [24001-24200] [24201-24400] [24401-24600] [24601-24800] [24801-25000] [25001-25200] [25201-25400] [25401-25600] [25601-25800] [25801-26000] [26001-26200] [26201-26400] [26401-26600] [26601-26800] [26801-27000] [27001-27200] [27201-27400] [27401-27600] [27601-27800] [27801-28000] [28001-28200] [28201-28400] [28401-28600] [28601-28800] [28801-29000] [29001-29200] [29201-29400] [29401-29600] [29601-29800] [29801-30000] [30001-30200] [30201-30400] [30401-30600] [30601-30800] [30801-31000] [31001-31200] [31201-31400] [31401-31600] [31601-31800] [31801-32000] [32001-32200] [32201-32400] [32401-32600] [32601-32800] [32801-33000] [33001-33200] [33201-33400] [33401-33600] [33601-33800] [33801-34000] [34001-34200] [34201-34400] [34401-34600] [34601-34800] [34801-35000] [35001-35200] [35201-35400] [35401-35600] [35601-35800] [35801-36000] [36001-36200] [36201-36400] [36401-36600] [36601-36800] [36801-37000] [37001-37200] [37201-37400] [37401-37600] [37601-37800] [37801-38000] [38001-38200] [38201-38400] [38401-38600] [38601-38800] [38801-39000] [39001-39200] [39201-39400] [39401-39600] [39601-39800] [39801-40000] [40001-40200] [40201-40400] [40401-40600] [40601-40800] [40801-41000] [41001-41200] [41201-41400] [41401-41600] [41601-41800] [41801-42000] [42001-42200] [42201-42400] [42401-42600] [42601-42800] [42801-43000] [43001-43200] [43201-43400] [43401-43600] [43601-43800] [43801-44000] [44001-44200] [44201-44400] [44401-44600] [44601-44800] [44801-45000] [45001-45200] [45201-45400] [45401-45600] [45601-45800] [45801-46000] [46001-46200] [46201-46400] [46401-46600] [46601-46800] [46801-47000] [47001-47200] [47201-47400] [47401-47600] [47601-47800] [47801-48000] [48001-48200] [48201-48400] [48401-48600] [48601-48800] [48801-49000] [49001-49200] [49201-49400] [49401-49600] [49601-49800] [49801-50000] [50001-50200] [50201-50388]

Designation T Tech N Date Right Ascension Declination Apparent Magnitude Star Catalog Site code χ Used A Used M
yr-mo-day precision hr:min:sec precision rms F bias residual deg min sec precision rms F bias residual mag/col rms residual
2016UW5 O C H 2016-10-22.35931 1.000E-05 02:18:41.350 1.500E-01 0.500 F -0.265 -0.255 +18° 18' 17.70" 1.000E-01 0.500 F 0.269 -0.121 21.0 V 0.70 0.13 o 691 0.57 Yes Yes
2016UZ25 O C H 2016-10-22.36531 1.000E-05 02:42:29.410 1.500E-01 0.500 F -0.270 0.314 +15° 51' 43.90" 1.000E-01 0.500 F 0.319 -0.338 20.5 V 0.70 -0.39 o 691 0.93 Yes Yes
2016UW5 O C H 2016-10-22.36759 1.000E-05 02:18:41.220 1.500E-01 0.500 F -0.265 -0.201 +18° 18' 30.30" 1.000E-01 0.500 F 0.269 -0.457 21.3 V 0.70 0.43 o 691 1.02 Yes Yes
2016UZ25 O C H 2016-10-22.37359 1.000E-05 02:42:28.450 1.500E-01 0.500 F -0.270 0.113 +15° 51' 44.10" 1.000E-01 0.500 F 0.319 -0.122 20.6 V 0.70 -0.28 o 691 0.33 Yes Yes
2016TN18 O C H 2016-10-22.37589 1.000E-05 02:19:17.220 1.500E-01 0.500 F -0.258 -0.050 +13° 23' 14.50" 1.000E-01 0.500 F 0.279 0.050 21.2 V 0.70 -0.01 o 691 0.15 Yes Yes
2016SF35 O C H 2016-10-22.37822 1.000E-05 02:36:56.000 1.500E-01 0.500 F -0.246 -0.126 +16° 07' 28.50" 1.000E-01 0.500 F 0.336 0.268 20.6 V 0.70 0.15 o 691 0.60 Yes Yes
2016TS55 O C 2016-10-22.38022 1.000E-05 03:18:29.820 1.500E-01 0.500 F -0.249 -0.308 +21° 30' 57.10" 1.000E-01 0.500 F 0.286 -0.130 18.5 V 0.70 -0.05 o 691 0.67 Yes Yes
2016TN18 O C H 2016-10-22.38508 1.000E-05 02:19:17.290 1.500E-01 0.500 F -0.258 0.626 +13° 23' 32.90" 1.000E-01 0.500 F 0.279 -1.086 20.8 V 0.70 -0.41 o 691 2.57 Yes Yes
2016SF35 O C H 2016-10-22.38739 1.000E-05 02:36:56.370 1.500E-01 0.500 F -0.246 0.090 +16° 07' 53.70" 1.000E-01 0.500 F 0.336 -0.041 20.4 V 0.70 -0.05 o 691 0.20 Yes Yes
2016TS55 O C 2016-10-22.38941 1.000E-05 03:18:32.920 1.500E-01 0.500 F -0.249 -0.268 +21° 29' 49.20" 1.000E-01 0.500 F 0.286 -0.075 18.6 V 0.70 0.05 o 691 0.56 Yes Yes
2016TN18 O C H 2016-10-22.39417 1.000E-05 02:19:17.280 1.500E-01 0.500 F -0.258 0.078 +13° 23' 52.10" 1.000E-01 0.500 F 0.279 -1.161 o 691 2.38 Yes No
2016SF35 O C H 2016-10-22.39651 1.000E-05 02:36:56.700 1.500E-01 0.500 F -0.246 -0.287 +16° 08' 18.50" 1.000E-01 0.500 F 0.336 -0.576 20.8 V 0.70 0.35 o 691 1.30 Yes Yes
2016TS55 O C 2016-10-22.39853 1.000E-05 03:18:36.010 1.500E-01 0.500 F -0.249 -0.064 +21° 28' 41.50" 1.000E-01 0.500 F 0.286 -0.237 18.7 V 0.70 0.15 o 691 0.49 Yes Yes
2016TZ19 O C H 2016-10-22.40544 1.000E-05 00:46:03.830 1.500E-01 0.500 F -0.156 0.125 +28° 42' 46.70" 1.000E-01 0.500 F 0.187 -0.615 19.3 V 0.70 0.40 o 691 1.30 Yes Yes
2016SG17 O C H 2016-10-22.40719 1.000E-05 23:44:53.770 1.500E-01 0.500 F 0.022 0.528 +28° 34' 30.40" 1.000E-01 0.500 F 0.287 -0.920 o 691 2.15 Yes No
2016TZ19 O C H 2016-10-22.41262 1.000E-05 00:45:55.760 1.500E-01 0.500 F -0.156 -0.085 +28° 42' 29.90" 1.000E-01 0.500 F 0.187 -0.685 19.1 V 0.70 0.21 o 691 1.43 Yes Yes
2016SG17 O C H 2016-10-22.41437 1.000E-05 23:44:50.780 1.500E-01 0.500 F 0.022 0.234 +28° 34' 45.80" 1.000E-01 0.500 F 0.287 -0.072 o 691 0.50 Yes No
2016TZ19 O C H 2016-10-22.41979 1.000E-05 00:45:47.740 1.500E-01 0.500 F -0.156 0.190 +28° 42' 13.10" 1.000E-01 0.500 F 0.187 -0.674 19.1 V 0.70 0.21 o 691 1.45 Yes Yes
2016SG17 O C H 2016-10-22.42154 1.000E-05 23:44:47.710 1.500E-01 0.500 F 0.022 -1.235 +28° 35' 00.50" 1.000E-01 0.500 F 0.287 0.115 o 691 2.52 Yes No
2016UC26 O C H 2016-10-22.45630 1.000E-05 05:03:00.540 1.500E-01 0.500 F -0.213 0.470 -09° 03' 53.20" 1.000E-01 0.500 F 0.040 -0.544 19.1 V 0.70 0.05 o 691 1.58 Yes Yes
2016TT19 O C H 2016-10-22.45792 1.000E-05 05:46:26.610 1.500E-01 0.500 F 0.037 -0.121 -21° 55' 23.70" 1.000E-01 0.500 F -0.205 -0.408 19.4 V 0.70 -0.20 o 691 0.87 Yes Yes
2016UC26 O C H 2016-10-22.45950 1.000E-05 05:03:04.150 1.500E-01 0.500 F -0.213 1.642 -09° 04' 13.40" 1.000E-01 0.500 F 0.040 -0.813 o 691 3.37 No No
2016TT19 O C H 2016-10-22.46113 1.000E-05 05:46:29.270 1.500E-01 0.500 F 0.037 0.133 -21° 55' 39.30" 1.000E-01 0.500 F -0.205 -0.101 19.0 V 0.70 -0.60 o 691 0.39 Yes Yes
2016UC26 O C H 2016-10-22.46272 1.000E-05 05:03:07.650 1.500E-01 0.500 F -0.213 0.841 -09° 04' 33.00" 1.000E-01 0.500 F 0.040 -0.362 19.0 V 0.70 -0.05 o 691 2.04 Yes Yes
2016TT19 O C H 2016-10-22.46434 1.000E-05 05:46:31.910 1.500E-01 0.500 F 0.037 0.097 -21° 55' 55.20" 1.000E-01 0.500 F -0.205 -0.098 19.5 V 0.70 -0.10 o 691 0.32 Yes Yes
2016QB2 O C 2016-10-22.47364 1.000E-05 02:40:40.540 1.500E-01 0.500 F -0.238 0.088 -10° 49' 01.30" 1.000E-01 0.500 F 0.113 0.161 21.0 V 0.70 0.46 o 691 0.37 Yes Yes
2016QB2 O C 2016-10-22.48213 1.000E-05 02:40:41.530 1.500E-01 0.500 F -0.238 -0.160 -10° 49' 03.20" 1.000E-01 0.500 F 0.113 -0.403 20.8 V 0.70 0.26 o 691 0.88 Yes Yes
2016QB2 O C 2016-10-22.49071 1.000E-05 02:40:42.550 1.500E-01 0.500 F -0.238 -0.284 -10° 49' 04.60" 1.000E-01 0.500 F 0.113 -0.482 21.2 V 0.70 0.66 o 691 1.13 Yes Yes
2016UY40 O C H 2016-10-26.16188 1.000E-05 22:00:18.020 1.500E-01 0.500 F -0.119 -0.111 -01° 48' 04.40" 1.000E-01 0.500 F 0.151 -0.052 21.2 V 0.70 -0.02 o 691 0.25 Yes Yes
2016UY40 O C H 2016-10-26.16417 1.000E-05 22:00:17.700 1.500E-01 0.500 F -0.119 0.712 -01° 47' 55.70" 1.000E-01 0.500 F 0.151 -0.108 21.3 V 0.70 0.08 o 691 1.49 Yes Yes
2016UY40 O C H 2016-10-26.16648 1.000E-05 22:00:17.230 1.500E-01 0.500 F -0.119 -0.667 -01° 47' 44.70" 1.000E-01 0.500 F 0.151 2.059 20.9 V 0.70 -0.32 o 691 4.18 No Yes
2016LZ10 O C H 2016-10-26.17623 1.000E-05 23:23:02.200 1.500E-01 0.500 F -0.092 0.059 +02° 03' 24.60" 1.000E-01 0.500 F 0.351 -0.037 20.3 V 0.70 0.15 o 691 0.14 Yes Yes
2016LZ10 O C H 2016-10-26.17851 1.000E-05 23:23:02.520 1.500E-01 0.500 F -0.092 0.221 +02° 03' 24.60" 1.000E-01 0.500 F 0.351 0.084 20.4 V 0.70 0.25 o 691 0.48 Yes Yes
2016LZ10 O C H 2016-10-26.18082 1.000E-05 23:23:02.800 1.500E-01 0.500 F -0.092 -0.277 +02° 03' 24.60" 1.000E-01 0.500 F 0.351 0.208 20.3 V 0.70 0.15 o 691 0.69 Yes Yes
2016UN36 O C H 2016-10-26.23748 1.000E-05 00:29:25.400 1.500E-01 0.500 F -0.191 -0.191 +23° 15' 29.00" 1.000E-01 0.500 F 0.298 0.085 20.8 V 0.70 -0.17 o 691 0.42 Yes Yes
2016TD18 O C H 2016-10-26.24569 1.000E-05 02:23:11.300 1.500E-01 0.500 F -0.341 0.009 -10° 01' 22.10" 1.000E-01 0.500 F 0.248 0.101 20.7 V 0.70 -0.33 o 691 0.20 Yes Yes
2016UN36 O C H 2016-10-26.24906 1.000E-05 00:29:25.400 1.500E-01 0.500 F -0.191 -0.218 +23° 15' 37.00" 1.000E-01 0.500 F 0.298 0.220 20.8 V 0.70 -0.17 o 691 0.62 Yes Yes
2016TD18 O C H 2016-10-26.25765 1.000E-05 02:23:11.850 1.500E-01 0.500 F -0.341 -0.336 -10° 01' 41.50" 1.000E-01 0.500 F 0.248 0.217 21.0 V 0.70 -0.03 o 691 0.81 Yes Yes
2016UN36 O C H 2016-10-26.26125 1.000E-05 00:29:25.390 1.500E-01 0.500 F -0.191 -0.424 +23° 15' 45.00" 1.000E-01 0.500 F 0.298 0.075 20.7 V 0.70 -0.27 o 691 0.86 Yes Yes
2016TD18 O C H 2016-10-26.27003 1.000E-05 02:23:12.440 1.500E-01 0.500 F -0.341 -0.303 -10° 02' 02.60" 1.000E-01 0.500 F 0.248 -0.718 21.0 V 0.70 -0.03 o 691 1.57 Yes Yes
2016UZ25 O C H 2016-10-26.27754 1.000E-05 02:34:09.920 1.500E-01 0.500 F -0.259 -0.179 +15° 50' 31.30" 1.000E-01 0.500 F 0.373 0.097 20.4 V 0.70 0.13 o 691 0.41 Yes Yes
2016TM56 O C 2016-10-26.28541 1.000E-05 02:20:37.530 1.500E-01 0.500 F -0.224 -0.090 +15° 13' 42.40" 1.000E-01 0.500 F 0.298 0.200 19.5 V 0.70 0.24 o 691 0.44 Yes Yes
2016TA56 O C H 2016-10-26.28861 1.000E-05 03:21:46.510 1.500E-01 0.500 F -0.132 0.126 -23° 32' 23.70" 1.000E-01 0.500 F 0.148 0.184 20.6 V 0.70 -0.96 o 691 0.45 Yes Yes
2016UZ25 O C H 2016-10-26.29172 1.000E-05 02:34:07.600 1.500E-01 0.500 F -0.259 -0.192 +15° 50' 30.00" 1.000E-01 0.500 F 0.373 -0.660 20.2 V 0.70 -0.07 o 691 1.38 Yes Yes
2016TM56 O C 2016-10-26.29959 1.000E-05 02:20:39.230 1.500E-01 0.500 F -0.224 -0.149 +15° 12' 28.50" 1.000E-01 0.500 F 0.298 -0.041 19.6 V 0.70 0.34 o 691 0.31 Yes Yes
2016TA56 O C H 2016-10-26.30285 1.000E-05 03:21:45.410 1.500E-01 0.500 F -0.132 -0.299 -23° 32' 45.30" 1.000E-01 0.500 F 0.148 -0.493 20.9 V 0.70 -0.66 o 691 1.17 Yes Yes
2016UZ25 O C H 2016-10-26.30595 1.000E-05 02:34:05.290 1.500E-01 0.500 F -0.259 0.138 +15° 50' 29.70" 1.000E-01 0.500 F 0.373 -0.359 20.2 V 0.70 -0.07 o 691 0.77 Yes Yes
2016TM56 O C 2016-10-26.31380 1.000E-05 02:20:40.920 1.500E-01 0.500 F -0.224 -0.179 +15° 11' 14.30" 1.000E-01 0.500 F 0.298 0.028 19.6 V 0.70 0.34 o 691 0.36 Yes Yes
2016TO2 O C H 2016-10-26.31931 1.000E-05 03:06:44.570 1.500E-01 0.500 F -0.263 -0.720 -10° 53' 56.50" 1.000E-01 0.500 F 0.162 -0.166 20.8 V 0.70 -0.32 o 691 1.53 Yes Yes
2016TO2 O C H 2016-10-26.33540 1.000E-05 03:06:44.630 1.500E-01 0.500 F -0.263 -0.112 -10° 54' 25.10" 1.000E-01 0.500 F 0.162 0.388 20.5 V 0.70 -0.62 o 691 0.86 Yes Yes
2016TO2 O C H 2016-10-26.35138 1.000E-05 03:06:44.670 1.500E-01 0.500 F -0.263 0.223 -10° 54' 54.80" 1.000E-01 0.500 F 0.162 -0.420 20.9 V 0.70 -0.22 o 691 1.01 Yes Yes
2016LZ10 O C H 2016-10-27.15039 1.000E-05 23:25:20.490 1.500E-01 0.500 F -0.123 -0.361 +02° 02' 40.40" 1.000E-01 0.500 F 0.350 -0.053 20.7 V 0.70 0.50 o 691 0.73 Yes Yes
2016LZ10 O C H 2016-10-27.16261 1.000E-05 23:25:22.160 1.500E-01 0.500 F -0.123 0.123 +02° 02' 39.70" 1.000E-01 0.500 F 0.350 -0.311 20.4 V 0.70 0.20 o 691 0.67 Yes Yes
2016LZ10 O C H 2016-10-27.17483 1.000E-05 23:25:23.790 1.500E-01 0.500 F -0.123 0.025 +02° 02' 39.40" 1.000E-01 0.500 F 0.350 -0.169 20.2 V 0.70 0.00 o 691 0.34 Yes Yes
2016UT4 O C 2016-10-27.20280 1.000E-05 00:26:24.770 1.500E-01 0.500 F -0.149 -0.061 +17° 32' 30.70" 1.000E-01 0.500 F 0.319 0.035 o 691 0.14 Yes No
2016GD135 O C H 2016-10-27.20280 1.000E-05 00:26:34.190 1.500E-01 0.500 F -0.152 -0.632 +16° 58' 38.10" 1.000E-01 0.500 F 0.437 0.115 20.9 V 0.70 -0.18 o 691 1.30 Yes Yes
2016TP11 O C H 2016-10-27.20524 1.000E-05 01:35:31.380 1.500E-01 0.500 F -0.246 0.475 -02° 46' 40.40" 1.000E-01 0.500 F 0.187 -0.073 20.6 V 0.70 0.32 o 691 0.97 Yes Yes
2016UT4 O C 2016-10-27.21531 1.000E-05 00:26:29.140 1.500E-01 0.500 F -0.149 0.087 +17° 32' 56.20" 1.000E-01 0.500 F 0.319 -0.079 o 691 0.24 Yes No
2016TP11 O C H 2016-10-27.21775 1.000E-05 01:35:29.480 1.500E-01 0.500 F -0.246 -0.315 -02° 46' 38.70" 1.000E-01 0.500 F 0.187 -0.187 20.9 V 0.70 0.62 o 691 0.74 Yes Yes
2016UT4 O C 2016-10-27.22799 1.000E-05 00:26:33.530 1.500E-01 0.500 F -0.149 -0.247 +17° 33' 22.20" 1.000E-01 0.500 F 0.319 0.104 o 691 0.54 Yes No
2016GD135 O C H 2016-10-27.22799 1.000E-05 00:26:35.030 1.500E-01 0.500 F -0.152 -0.482 +16° 57' 53.90" 1.000E-01 0.500 F 0.437 0.107 21.4 V 0.70 0.31 o 691 1.00 Yes Yes
2016TP11 O C H 2016-10-27.23060 1.000E-05 01:35:27.590 1.500E-01 0.500 F -0.246 -0.056 -02° 46' 37.00" 1.000E-01 0.500 F 0.187 -0.376 20.9 V 0.70 0.62 o 691 0.76 Yes Yes
2016TD18 O C H 2016-10-27.23996 1.000E-05 02:24:17.610 1.500E-01 0.500 F -0.301 -0.095 -10° 28' 25.40" 1.000E-01 0.500 F 0.239 -0.023 20.8 V 0.70 -0.18 o 691 0.20 Yes Yes
2016QB2 O C H 2016-10-27.24465 1.000E-05 02:50:34.030 1.500E-01 0.500 F -0.270 0.155 -10° 55' 24.40" 1.000E-01 0.500 F 0.104 0.470 20.5 V 0.70 -0.23 o 691 1.00 Yes Yes
2016TD18 O C H 2016-10-27.25289 1.000E-05 02:24:18.250 1.500E-01 0.500 F -0.301 -0.314 -10° 28' 46.80" 1.000E-01 0.500 F 0.239 0.199 21.2 V 0.70 0.22 o 691 0.75 Yes Yes
2016QB2 O C H 2016-10-27.25761 1.000E-05 02:50:35.080 1.500E-01 0.500 F -0.270 -0.346 -10° 55' 24.40" 1.000E-01 0.500 F 0.104 0.179 20.7 V 0.70 -0.03 o 691 0.79 Yes Yes
2016TD18 O C H 2016-10-27.26599 1.000E-05 02:24:18.850 1.500E-01 0.500 F -0.301 -1.149 -10° 29' 09.30" 1.000E-01 0.500 F 0.239 -0.439 20.9 V 0.70 -0.08 o 691 2.48 Yes Yes
2016QB2 O C H 2016-10-27.27066 1.000E-05 02:50:36.210 1.500E-01 0.500 F -0.270 0.428 -10° 55' 24.40" 1.000E-01 0.500 F 0.104 -0.201 21.0 V 0.70 0.27 o 691 0.96 Yes Yes
1999JO6 O C 2016-10-27.41812 1.000E-05 05:02:09.380 1.500E-01 0.500 F -0.289 -0.105 +17° 32' 27.60" 1.000E-01 0.500 F 0.202 -0.073 o 691 0.26 Yes No
1999JO6 O C 2016-10-27.43665 1.000E-05 05:02:08.110 1.500E-01 0.500 F -0.289 -0.125 +17° 32' 39.10" 1.000E-01 0.500 F 0.202 0.052 o 691 0.27 Yes No
1999JO6 O C 2016-10-27.45518 1.000E-05 05:02:06.830 1.500E-01 0.500 F -0.289 -0.285 +17° 32' 50.80" 1.000E-01 0.500 F 0.202 0.401 o 691 0.99 Yes No
1996AW1 O C 2016-10-27.51550 1.000E-05 09:36:24.400 1.500E-01 0.500 F 0.110 -0.298 +01° 24' 51.20" 1.000E-01 0.500 F 0.222 -0.392 o 691 0.99 Yes No
1996AW1 O C 2016-10-27.52021 1.000E-05 09:36:23.960 1.500E-01 0.500 F 0.110 -0.047 +01° 24' 56.30" 1.000E-01 0.500 F 0.222 0.118 o 691 0.25 Yes No
1996AW1 O C 2016-10-27.52493 1.000E-05 09:36:23.480 1.500E-01 0.500 F 0.110 -0.372 +01° 25' 01.20" 1.000E-01 0.500 F 0.222 0.418 o 691 1.12 Yes No
2016UX41 O C H 2016-10-29.11095 1.000E-05 21:32:01.430 1.500E-01 0.500 F -0.116 0.424 -10° 26' 27.30" 1.000E-01 0.500 F 0.378 -0.175 o 691 0.92 Yes No
2016UX41 O C H 2016-10-29.11384 1.000E-05 21:32:01.940 1.500E-01 0.500 F -0.116 2.580 -10° 26' 19.10" 1.000E-01 0.500 F 0.378 1.072 o 691 5.56 No No
2016UX41 O C H 2016-10-29.11677 1.000E-05 21:32:02.260 1.500E-01 0.500 F -0.007 1.749 -10° 26' 12.50" 1.000E-01 0.500 F 0.409 0.591 o 691 3.68 No No
2016RO1 O C H 2016-10-29.13613 1.000E-05 21:09:06.210 1.500E-01 0.500 F -0.040 -0.459 +14° 29' 52.00" 1.000E-01 0.500 F 0.356 -0.279 20.8 V 0.70 0.01 o 691 1.07 Yes Yes
2016RO1 O C H 2016-10-29.14306 1.000E-05 21:09:06.640 1.500E-01 0.500 F -0.040 -0.325 +14° 29' 46.70" 1.000E-01 0.500 F 0.356 -0.035 21.1 V 0.70 0.31 o 691 0.65 Yes Yes
2016RO1 O C H 2016-10-29.14998 1.000E-05 21:09:07.100 1.500E-01 0.500 F -0.040 0.242 +14° 29' 41.30" 1.000E-01 0.500 F 0.356 0.106 20.9 V 0.70 0.11 o 691 0.54 Yes Yes
2016TG55 O C H 2016-10-29.15892 1.000E-05 23:11:36.650 1.500E-01 0.500 F -0.062 0.241 +10° 23' 39.70" 1.000E-01 0.500 F 0.262 -0.163 19.4 V 0.70 -0.02 o 691 0.59 Yes Yes
2016TG55 O C H 2016-10-29.16051 1.000E-05 23:11:35.050 1.500E-01 0.500 F -0.062 0.799 +10° 23' 47.00" 1.000E-01 0.500 F 0.262 -0.659 19.7 V 0.70 0.28 o 691 2.11 Yes Yes
2016UW35 O C H 2016-10-29.16312 1.000E-05 23:19:54.030 1.500E-01 0.500 F -0.146 0.143 +06° 12' 15.30" 1.000E-01 0.500 F 0.324 1.323 o 691 2.74 Yes No
2016UB42 O C H 2016-10-29.16543 1.000E-05 23:44:40.500 1.500E-01 0.500 F -0.130 0.623 +06° 34' 58.30" 1.000E-01 0.500 F 0.252 -0.591 20.3 V 0.70 0.18 o 691 1.75 Yes Yes
2016UW35 O C H 2016-10-29.16932 1.000E-05 23:19:54.850 1.500E-01 0.500 F -0.146 1.605 +06° 11' 32.60" 1.000E-01 0.500 F 0.324 -1.719 o 691 4.58 No No
2016UB42 O C H 2016-10-29.17162 1.000E-05 23:44:39.550 1.500E-01 0.500 F -0.130 0.977 +06° 35' 21.40" 1.000E-01 0.500 F 0.252 -0.781 20.3 V 0.70 0.18 o 691 2.55 Yes Yes
2016UW35 O C H 2016-10-29.17549 1.000E-05 23:19:55.490 1.500E-01 0.500 F -0.146 0.438 +06° 10' 52.60" 1.000E-01 0.500 F 0.324 -2.236 o 691 4.44 No No
2016UB42 O C H 2016-10-29.17777 1.000E-05 23:44:38.530 1.500E-01 0.500 F -0.130 0.196 +06° 35' 44.80" 1.000E-01 0.500 F 0.252 -0.516 20.1 V 0.70 -0.02 o 691 1.13 Yes Yes
2016TF55 O C H 2016-10-29.18267 1.000E-05 23:54:40.300 1.500E-01 0.500 F -0.117 1.131 +09° 28' 17.50" 1.000E-01 0.500 F 0.279 -1.962 o 691 4.22 No No
2016TF55 O C H 2016-10-29.18498 1.000E-05 23:54:39.620 1.500E-01 0.500 F -0.117 -1.611 +09° 28' 31.50" 1.000E-01 0.500 F 0.279 1.604 o 691 4.22 No No
2016TF55 O C H 2016-10-29.18727 1.000E-05 23:54:39.270 1.500E-01 0.500 F -0.117 0.467 +09° 28' 39.60" 1.000E-01 0.500 F 0.279 -0.639 o 691 1.72 Yes No
2016UC31 O C H 2016-10-29.18921 1.000E-05 00:10:28.620 1.500E-01 0.500 F -0.144 0.395 +15° 18' 18.00" 1.000E-01 0.500 F 0.443 -0.980 o 691 2.15 Yes No
2016UC31 O C H 2016-10-29.19081 1.000E-05 00:10:28.480 1.500E-01 0.500 F -0.144 0.646 +15° 17' 54.10" 1.000E-01 0.500 F 0.443 -0.429 o 691 1.57 Yes No
2016UC31 O C H 2016-10-29.19242 1.000E-05 00:10:28.300 1.500E-01 0.500 F -0.144 0.333 +15° 17' 29.10" 1.000E-01 0.500 F 0.443 -0.820 21.3 V 0.70 1.42 o 691 1.80 Yes Yes
2016UN36 O C 2016-10-29.19489 1.000E-05 00:31:11.150 1.500E-01 0.500 F -0.191 -0.008 +23° 50' 02.20" 1.000E-01 0.500 F 0.298 0.053 20.6 V 0.70 -0.27 o 691 0.11 Yes Yes
2016UA26 O C H 2016-10-29.19722 1.000E-05 00:48:21.960 1.500E-01 0.500 F -0.187 0.107 +21° 48' 38.20" 1.000E-01 0.500 F 0.284 -0.066 o 691 0.34 Yes No
2016UN36 O C 2016-10-29.19950 1.000E-05 00:31:11.210 1.500E-01 0.500 F -0.191 -0.177 +23° 50' 05.50" 1.000E-01 0.500 F 0.298 -0.086 20.6 V 0.70 -0.27 o 691 0.39 Yes Yes
2016UA26 O C H 2016-10-29.20180 1.000E-05 00:48:23.410 1.500E-01 0.500 F -0.187 0.505 +21° 48' 14.50" 1.000E-01 0.500 F 0.284 -0.182 o 691 1.41 Yes No
2016UN36 O C 2016-10-29.20408 1.000E-05 00:31:11.290 1.500E-01 0.500 F -0.191 -0.057 +23° 50' 08.90" 1.000E-01 0.500 F 0.298 -0.082 20.5 V 0.70 -0.37 o 691 0.20 Yes Yes
2016UA26 O C H 2016-10-29.20637 1.000E-05 00:48:24.580 1.500E-01 0.500 F -0.187 -2.937 +21° 47' 55.00" 1.000E-01 0.500 F 0.284 3.858 o 691 8.05 No No
2016UM41 O C H 2016-10-29.20877 1.000E-05 00:59:02.770 1.500E-01 0.500 F -0.233 0.167 +21° 26' 30.60" 1.000E-01 0.500 F 0.258 -0.331 o 691 0.74 Yes No
2016UM41 O C H 2016-10-29.21111 1.000E-05 00:59:02.620 1.500E-01 0.500 F -0.233 0.334 +21° 26' 28.10" 1.000E-01 0.500 F 0.258 -0.901 o 691 1.93 Yes No
2016UM41 O C H 2016-10-29.21340 1.000E-05 00:59:02.420 1.500E-01 0.500 F -0.233 -0.245 +21° 26' 26.80" 1.000E-01 0.500 F 0.258 -0.312 o 691 0.80 Yes No
2016SE1 O C H 2016-10-29.21604 1.000E-05 01:15:48.220 1.500E-01 0.500 F -0.323 0.511 +06° 17' 00.70" 1.000E-01 0.500 F 0.316 -0.822 o 691 1.98 Yes No
2016SE1 O C H 2016-10-29.21835 1.000E-05 01:15:48.150 1.500E-01 0.500 F -0.323 0.745 +06° 17' 03.30" 1.000E-01 0.500 F 0.316 -0.558 o 691 1.90 Yes No
2016SE1 O C H 2016-10-29.22064 1.000E-05 01:15:48.020 1.500E-01 0.500 F -0.323 0.075 +06° 17' 05.90" 1.000E-01 0.500 F 0.316 -0.273 o 691 0.58 Yes No
2016UM5 O C H 2016-10-29.22310 1.000E-05 01:27:54.590 1.500E-01 0.500 F -0.235 0.803 +04° 06' 47.00" 1.000E-01 0.500 F 0.291 -0.544 o 691 1.97 Yes No
2016UM5 O C H 2016-10-29.22540 1.000E-05 01:27:54.500 1.500E-01 0.500 F -0.235 0.863 +04° 06' 53.00" 1.000E-01 0.500 F 0.291 -0.886 o 691 2.53 Yes No
2016UM5 O C H 2016-10-29.22769 1.000E-05 01:27:54.400 1.500E-01 0.500 F -0.235 0.769 +04° 07' 00.00" 1.000E-01 0.500 F 0.291 -0.200 o 691 1.61 Yes No
2016TP11 O C H 2016-10-29.23049 1.000E-05 01:31:49.390 1.500E-01 0.500 F -0.235 0.851 -02° 40' 30.10" 1.000E-01 0.500 F 0.150 -0.453 20.8 V 0.70 0.30 o 691 1.94 Yes Yes
2016TX19 O C H 2016-10-29.23277 1.000E-05 01:44:50.140 1.500E-01 0.500 F -0.252 0.606 -01° 49' 58.60" 1.000E-01 0.500 F 0.187 -0.103 o 691 1.27 Yes No
2002UQ12 O C H 2016-10-29.23508 1.000E-05 01:51:08.630 1.500E-01 0.500 F -0.276 0.642 -00° 41' 28.80" 1.000E-01 0.500 F 0.350 -0.423 18.0 V 0.70 -0.49 o 691 1.56 Yes Yes
2016TP11 O C H 2016-10-29.23736 1.000E-05 01:31:48.500 1.500E-01 0.500 F -0.235 0.771 -02° 40' 28.10" 1.000E-01 0.500 F 0.150 0.125 20.8 V 0.70 0.30 o 691 1.57 Yes Yes
2016TX19 O C H 2016-10-29.23964 1.000E-05 01:44:50.900 1.500E-01 0.500 F -0.252 0.941 -01° 49' 36.10" 1.000E-01 0.500 F 0.187 -0.262 o 691 2.02 Yes No
2002UQ12 O C H 2016-10-29.24194 1.000E-05 01:51:05.850 1.500E-01 0.500 F -0.276 0.455 -00° 42' 17.70" 1.000E-01 0.500 F 0.350 -0.818 18.1 V 0.70 -0.39 o 691 1.89 Yes Yes
2016TP11 O C H 2016-10-29.24427 1.000E-05 01:31:47.540 1.500E-01 0.500 F -0.235 -0.263 -02° 40' 26.50" 1.000E-01 0.500 F 0.150 0.289 20.7 V 0.70 0.20 o 691 0.78 Yes Yes
2016TX19 O C H 2016-10-29.24658 1.000E-05 01:44:51.590 1.500E-01 0.500 F -0.252 0.135 -01° 49' 13.90" 1.000E-01 0.500 F 0.187 -0.957 o 691 2.01 Yes No
2002UQ12 O C H 2016-10-29.24888 1.000E-05 01:51:03.050 1.500E-01 0.500 F -0.276 0.536 -00° 43' 06.90" 1.000E-01 0.500 F 0.350 -0.889 18.0 V 0.70 -0.49 o 691 2.10 Yes Yes
2016UC42 O C H 2016-10-29.25242 1.000E-05 02:53:11.330 1.500E-01 0.500 F -0.253 0.442 +04° 12' 00.50" 1.000E-01 0.500 F 0.162 -0.575 o 691 1.50 Yes No
2016UC42 O C H 2016-10-29.25409 1.000E-05 02:53:10.920 1.500E-01 0.500 F -0.253 -0.585 +04° 12' 12.60" 1.000E-01 0.500 F 0.162 -0.277 o 691 1.32 Yes No
2016UC42 O C H 2016-10-29.25579 1.000E-05 02:53:10.610 1.500E-01 0.500 F -0.253 -0.020 +04° 12' 24.30" 1.000E-01 0.500 F 0.162 -0.585 o 691 1.18 Yes No
2016TM56 O C H 2016-10-29.25899 1.000E-05 02:30:18.760 1.500E-01 0.500 F -0.123 0.660 +11° 41' 10.50" 1.000E-01 0.500 F 0.386 -0.431 o 691 1.58 Yes No
2016TM56 O C H 2016-10-29.26128 1.000E-05 02:30:18.870 1.500E-01 0.500 F -0.084 0.304 +11° 41' 02.90" 1.000E-01 0.500 F 0.224 -0.108 o 691 0.65 Yes No
2016TM56 O C H 2016-10-29.26357 1.000E-05 02:30:19.040 1.500E-01 0.500 F -0.084 0.883 +11° 40' 55.20" 1.000E-01 0.500 F 0.224 -0.041 o 691 1.77 Yes No
2016UZ25 O C H 2016-10-29.26866 1.000E-05 02:25:17.530 1.500E-01 0.500 F -0.228 0.685 +15° 46' 38.20" 1.000E-01 0.500 F 0.316 -0.542 19.9 V 0.70 0.20 o 691 1.75 Yes Yes
2016UZ25 O C H 2016-10-29.27324 1.000E-05 02:25:16.500 1.500E-01 0.500 F -0.228 0.202 +15° 46' 37.80" 1.000E-01 0.500 F 0.316 -0.468 19.5 V 0.70 -0.20 o 691 1.02 Yes Yes
2016UZ25 O C H 2016-10-29.27787 1.000E-05 02:25:15.520 1.500E-01 0.500 F -0.228 0.610 +15° 46' 37.10" 1.000E-01 0.500 F 0.316 -0.683 19.9 V 0.70 0.20 o 691 1.84 Yes Yes
2016SF35 O C H 2016-10-29.28046 1.000E-05 02:42:56.450 1.500E-01 0.500 F -0.337 -0.372 +21° 29' 27.80" 1.000E-01 0.500 F 0.302 0.136 20.9 V 0.70 0.56 o 691 0.80 Yes Yes
2016SF35 O C H 2016-10-29.28277 1.000E-05 02:42:56.540 1.500E-01 0.500 F -0.337 -0.111 +21° 29' 34.00" 1.000E-01 0.500 F 0.302 -0.081 20.8 V 0.70 0.46 o 691 0.28 Yes Yes
2016SF35 O C H 2016-10-29.28508 1.000E-05 02:42:56.600 1.500E-01 0.500 F -0.337 -0.267 +21° 29' 40.10" 1.000E-01 0.500 F 0.302 -0.394 20.4 V 0.70 0.06 o 691 0.96 Yes Yes
2016TQ56 O C H 2016-10-29.28799 1.000E-05 02:46:53.610 1.500E-01 0.500 F -0.122 0.078 +06° 53' 12.30" 1.000E-01 0.500 F 0.398 -0.189 20.9 V 0.70 0.17 o 691 0.47 Yes Yes
2016TQ56 O C H 2016-10-29.29028 1.000E-05 02:46:53.480 1.500E-01 0.500 F -0.122 0.370 +06° 53' 08.60" 1.000E-01 0.500 F 0.398 0.300 20.7 V 0.70 -0.03 o 691 1.09 Yes Yes
2016TQ56 O C H 2016-10-29.29256 1.000E-05 02:46:53.270 1.500E-01 0.500 F -0.122 -0.538 +06° 53' 03.60" 1.000E-01 0.500 F 0.398 -0.530 20.9 V 0.70 0.17 o 691 1.73 Yes Yes
2016QB2 O C H 2016-10-29.29570 1.000E-05 02:54:05.220 1.500E-01 0.500 F -0.270 0.445 -10° 51' 26.20" 1.000E-01 0.500 F 0.104 -0.447 o 691 1.28 Yes No
2016QB2 O C H 2016-10-29.30027 1.000E-05 02:54:05.540 1.500E-01 0.500 F -0.270 0.381 -10° 51' 25.60" 1.000E-01 0.500 F 0.104 -0.578 o 691 1.41 Yes No
2016QB2 O C H 2016-10-29.30483 1.000E-05 02:54:05.860 1.500E-01 0.500 F -0.270 0.338 -10° 51' 24.70" 1.000E-01 0.500 F 0.104 -0.419 o 691 1.09 Yes No
2009XZ1 O C H 2016-10-29.31033 1.000E-05 02:36:45.150 1.500E-01 0.500 F -0.307 -0.495 -15° 36' 04.20" 1.000E-01 0.500 F 0.206 -0.616 o 691 1.61 Yes No
2009XZ1 O C H 2016-10-29.31263 1.000E-05 02:36:44.370 1.500E-01 0.500 F -0.307 0.917 -15° 36' 02.90" 1.000E-01 0.500 F 0.206 -0.608 o 691 2.24 Yes No
2009XZ1 O C H 2016-10-29.31496 1.000E-05 02:36:43.450 1.500E-01 0.500 F -0.307 0.472 -15° 36' 01.60" 1.000E-01 0.500 F 0.206 -0.618 o 691 1.58 Yes No
2016TA56 O C H 2016-10-29.31725 1.000E-05 03:17:55.000 1.500E-01 0.500 F -0.199 0.224 -24° 45' 50.90" 1.000E-01 0.500 F 0.201 -1.686 o 691 3.36 No No
2003WR21 O C H 2016-10-29.31963 1.000E-05 03:14:36.970 1.500E-01 0.500 F -0.227 -0.004 -06° 51' 53.00" 1.000E-01 0.500 F 0.219 -0.327 19.7 V 0.70 0.53 o 691 0.66 Yes Yes
2016TA56 O C H 2016-10-29.32203 1.000E-05 03:17:54.570 1.500E-01 0.500 F -0.199 -0.245 -24° 45' 57.00" 1.000E-01 0.500 F 0.201 -0.880 o 691 1.85 Yes No
2003WR21 O C H 2016-10-29.32441 1.000E-05 03:14:36.240 1.500E-01 0.500 F -0.227 0.160 -06° 51' 54.80" 1.000E-01 0.500 F 0.219 -0.144 19.7 V 0.70 0.53 o 691 0.43 Yes Yes
2016TA56 O C H 2016-10-29.32679 1.000E-05 03:17:54.220 1.500E-01 0.500 F -0.199 0.353 -24° 46' 03.80" 1.000E-01 0.500 F 0.201 -0.806 o 691 1.78 Yes No
2003WR21 O C H 2016-10-29.32918 1.000E-05 03:14:35.470 1.500E-01 0.500 F -0.227 -0.291 -06° 51' 56.60" 1.000E-01 0.500 F 0.219 0.032 19.6 V 0.70 0.43 o 691 0.59 Yes Yes
2016SG35 O C H 2016-10-29.33236 1.000E-05 03:22:19.930 1.500E-01 0.500 F -0.247 0.205 +19° 55' 10.50" 1.000E-01 0.500 F 0.384 -0.155 o 691 0.52 Yes No
2016TJ93 O C H 2016-10-29.33465 1.000E-05 03:22:21.520 1.500E-01 0.500 F -0.296 -1.084 +22° 44' 18.00" 1.000E-01 0.500 F 0.217 2.620 o 691 5.32 No No
2016TE93 O C H 2016-10-29.33685 1.000E-05 03:26:56.080 1.500E-01 0.500 F -0.036 0.727 +08° 05' 01.40" 1.000E-01 0.500 F 0.193 -0.879 19.7 V 0.70 0.35 o 691 2.32 Yes Yes
2016SG35 O C H 2016-10-29.33902 1.000E-05 03:22:19.620 1.500E-01 0.500 F -0.247 -0.350 +19° 55' 18.10" 1.000E-01 0.500 F 0.384 -0.023 20.9 V 0.70 -0.21 o 691 0.72 Yes Yes
2016TJ93 O C H 2016-10-29.34129 1.000E-05 03:22:20.800 1.500E-01 0.500 F -0.296 -0.123 +22° 44' 50.50" 1.000E-01 0.500 F 0.217 -0.338 o 691 0.77 Yes No
2016TE93 O C H 2016-10-29.34355 1.000E-05 03:26:55.040 1.500E-01 0.500 F -0.036 0.161 +08° 04' 21.00" 1.000E-01 0.500 F 0.193 -1.646 18.8 V 0.70 -0.55 o 691 3.25 No Yes
2016SG35 O C H 2016-10-29.34571 1.000E-05 03:22:19.330 1.500E-01 0.500 F -0.247 -0.603 +19° 55' 25.00" 1.000E-01 0.500 F 0.384 -0.601 21.2 V 0.70 0.09 o 691 1.74 Yes Yes
2016TJ93 O C H 2016-10-29.34798 1.000E-05 03:22:20.070 1.500E-01 0.500 F -0.296 0.785 +22° 45' 26.00" 1.000E-01 0.500 F 0.217 -0.543 o 691 2.05 Yes No
2016TS55 O C H 2016-10-29.36172 1.000E-05 03:52:01.360 1.500E-01 0.500 F -0.091 0.402 +09° 17' 09.70" 1.000E-01 0.500 F 0.136 -0.764 19.7 V 0.70 0.72 o 691 1.74 Yes Yes
2016TS55 O C H 2016-10-29.36401 1.000E-05 03:52:01.750 1.500E-01 0.500 F -0.091 0.318 +09° 16' 57.60" 1.000E-01 0.500 F 0.136 -0.982 19.7 V 0.70 0.72 o 691 2.08 Yes Yes
2016TS55 O C H 2016-10-29.36629 1.000E-05 03:52:02.160 1.500E-01 0.500 F -0.091 0.558 +09° 16' 46.10" 1.000E-01 0.500 F 0.136 -0.651 19.4 V 0.70 0.42 o 691 1.73 Yes Yes
2016TT93 O C H 2016-10-29.36876 1.000E-05 04:14:23.200 1.500E-01 0.500 F -0.182 0.946 +05° 00' 46.00" 1.000E-01 0.500 F 0.312 -0.201 20.5 V 0.70 1.09 o 691 1.95 Yes Yes
2016TT93 O C H 2016-10-29.37104 1.000E-05 04:14:23.410 1.500E-01 0.500 F -0.182 0.586 +05° 01' 06.90" 1.000E-01 0.500 F 0.312 -0.796 20.4 V 0.70 0.99 o 691 2.00 Yes Yes
2016TT93 O C H 2016-10-29.37332 1.000E-05 04:14:23.660 1.500E-01 0.500 F -0.182 0.823 +05° 01' 29.30" 1.000E-01 0.500 F 0.312 0.104 19.8 V 0.70 0.39 o 691 1.68 Yes Yes
2016UA57 O C H 2016-10-29.38360 1.000E-05 02:58:19.730 1.500E-01 0.500 F -0.316 0.167 -04° 26' 20.50" 1.000E-01 0.500 F 0.252 -1.180 o 691 2.56 Yes No
2016UA57 O C H 2016-10-29.38520 1.000E-05 02:58:20.880 1.500E-01 0.500 F -0.316 1.766 -04° 26' 46.50" 1.000E-01 0.500 F 0.252 -2.903 o 691 6.35 No No
2016UA57 O C H 2016-10-29.38678 1.000E-05 02:58:21.860 1.500E-01 0.500 F -0.316 1.012 -04° 27' 07.80" 1.000E-01 0.500 F 0.252 -0.231 o 691 2.24 Yes No
2011DU O C H 2016-10-29.40330 1.000E-05 02:47:22.040 1.500E-01 0.500 F -0.318 -0.026 -01° 51' 59.00" 1.000E-01 0.500 F 0.245 -0.128 18.0 V 0.70 0.38 o 691 0.26 Yes Yes
2011DU O C H 2016-10-29.40488 1.000E-05 02:47:21.670 1.500E-01 0.500 F -0.318 -0.170 -01° 51' 58.40" 1.000E-01 0.500 F 0.245 -0.210 18.0 V 0.70 0.38 o 691 0.54 Yes Yes
2011DU O C H 2016-10-29.40650 1.000E-05 02:47:21.310 1.500E-01 0.500 F -0.318 -0.032 -01° 51' 57.70" 1.000E-01 0.500 F 0.245 -0.209 18.0 V 0.70 0.38 o 691 0.43 Yes Yes
2016SF17 O C H 2016-10-29.40911 1.000E-05 04:06:34.040 1.500E-01 0.500 F -0.253 1.975 -11° 58' 55.50" 1.000E-01 0.500 F 0.123 -0.593 o 691 3.88 No No
2016SF17 O C H 2016-10-29.41139 1.000E-05 04:06:34.500 1.500E-01 0.500 F -0.253 1.303 -11° 59' 01.10" 1.000E-01 0.500 F 0.123 -1.474 o 691 3.68 No No
2016SF17 O C H 2016-10-29.41367 1.000E-05 04:06:34.890 1.500E-01 0.500 F -0.253 -0.398 -11° 59' 04.20" 1.000E-01 0.500 F 0.123 0.142 o 691 0.91 Yes No
2016UC57 O C H 2016-10-29.41826 1.000E-05 03:27:11.610 1.500E-01 0.500 F -0.118 0.397 -04° 37' 05.30" 1.000E-01 0.500 F 0.041 -1.052 o 691 2.35 Yes No
2016UU80 O C H 2016-10-29.42055 1.000E-05 03:31:15.160 1.500E-01 0.500 F -0.216 0.661 -05° 44' 41.20" 1.000E-01 0.500 F 0.130 0.019 21.3 V 0.70 0.10 o 691 1.33 Yes Yes
2016UC57 O C H 2016-10-29.42285 1.000E-05 03:27:11.370 1.500E-01 0.500 F -0.118 -0.052 -04° 36' 46.20" 1.000E-01 0.500 F 0.041 0.244 o 691 0.52 Yes No
2016UU80 O C H 2016-10-29.42518 1.000E-05 03:31:15.110 1.500E-01 0.500 F -0.216 -0.227 -05° 44' 47.10" 1.000E-01 0.500 F 0.130 0.098 20.9 V 0.70 -0.30 o 691 0.50 Yes Yes
2016UC57 O C H 2016-10-29.42747 1.000E-05 03:27:11.210 1.500E-01 0.500 F -0.118 0.694 -04° 36' 29.20" 1.000E-01 0.500 F 0.041 -0.685 o 691 2.03 Yes No
2016UU80 O C H 2016-10-29.42980 1.000E-05 03:31:15.140 1.500E-01 0.500 F -0.216 0.074 -05° 44' 52.90" 1.000E-01 0.500 F 0.130 0.264 20.9 V 0.70 -0.30 o 691 0.56 Yes Yes
2016TD55 O C H 2016-10-29.43323 1.000E-05 04:23:38.390 1.500E-01 0.500 F -0.288 0.635 +25° 20' 16.50" 1.000E-01 0.500 F 0.351 -1.357 o 691 3.06 Yes No
2016TD55 O C H 2016-10-29.43529 1.000E-05 04:23:38.890 1.500E-01 0.500 F -0.288 0.914 +25° 20' 05.60" 1.000E-01 0.500 F 0.351 -1.221 o 691 3.11 Yes No
2016TD55 O C H 2016-10-29.43739 1.000E-05 04:23:39.290 1.500E-01 0.500 F -0.288 -0.290 +25° 19' 56.10" 1.000E-01 0.500 F 0.351 0.533 o 691 1.24 Yes No
2016UA42 O C H 2016-10-29.44076 1.000E-05 05:12:50.080 1.500E-01 0.500 F -0.051 -0.429 +08° 08' 09.20" 1.000E-01 0.500 F 0.094 -0.553 o 691 1.42 Yes No
2016UA42 O C H 2016-10-29.44305 1.000E-05 05:12:49.620 1.500E-01 0.500 F -0.051 1.219 +08° 08' 14.20" 1.000E-01 0.500 F 0.094 -0.035 o 691 2.46 Yes No
2016UA42 O C H 2016-10-29.44534 1.000E-05 05:12:48.950 1.500E-01 0.500 F -0.051 -0.252 +08° 08' 18.40" 1.000E-01 0.500 F 0.094 -0.316 o 691 0.82 Yes No
2016SO2 O C H 2016-10-29.44805 1.000E-05 05:04:54.990 1.500E-01 0.500 F -0.252 0.271 -09° 41' 26.30" 1.000E-01 0.500 F 0.045 -0.661 o 691 1.50 Yes No
2016SO2 O C H 2016-10-29.45006 1.000E-05 05:04:55.860 1.500E-01 0.500 F -0.252 0.552 -09° 41' 23.50" 1.000E-01 0.500 F 0.045 -0.585 o 691 1.69 Yes No
2016TX55 O C H 2016-10-29.45537 1.000E-05 05:42:32.420 1.500E-01 0.500 F -0.077 0.077 -24° 45' 09.30" 1.000E-01 0.500 F 0.108 0.057 19.4 V 0.70 0.01 o 691 0.19 Yes Yes
2016TX55 O C H 2016-10-29.45765 1.000E-05 05:42:32.320 1.500E-01 0.500 F -0.077 -0.159 -24° 45' 16.80" 1.000E-01 0.500 F 0.108 0.155 19.4 V 0.70 0.01 o 691 0.45 Yes Yes
2016TX55 O C H 2016-10-29.45996 1.000E-05 05:42:32.240 1.500E-01 0.500 F -0.077 -0.108 -24° 45' 24.30" 1.000E-01 0.500 F 0.108 0.350 19.4 V 0.70 0.01 o 691 0.74 Yes Yes
2016UX41 O C H 2016-10-30.08673 1.000E-05 21:34:10.570 1.500E-01 0.500 F -0.007 0.901 -09° 47' 22.20" 1.000E-01 0.500 F 0.409 -0.510 o 691 2.08 Yes No
2016UX41 O C H 2016-10-30.08962 1.000E-05 21:34:10.940 1.500E-01 0.500 F -0.007 0.917 -09° 47' 15.20" 1.000E-01 0.500 F 0.409 -0.449 o 691 2.05 Yes No
2016UX41 O C H 2016-10-30.09251 1.000E-05 21:34:11.230 1.500E-01 0.500 F -0.007 -0.250 -09° 47' 08.70" 1.000E-01 0.500 F 0.409 -0.889 o 691 1.86 Yes No
2016SM3 O C H 2016-10-30.10187 1.000E-05 22:29:08.240 1.500E-01 0.500 F 0.074 0.661 +28° 13' 19.50" 1.000E-01 0.500 F 0.248 0.189 o 691 1.39 Yes No
2016SM3 O C H 2016-10-30.10418 1.000E-05 22:29:07.970 1.500E-01 0.500 F 0.074 0.128 +28° 13' 18.20" 1.000E-01 0.500 F 0.248 -0.249 o 691 0.56 Yes No
2016SM3 O C H 2016-10-30.10648 1.000E-05 22:29:07.780 1.500E-01 0.500 F 0.074 0.639 +28° 13' 16.80" 1.000E-01 0.500 F 0.248 -0.790 o 691 2.04 Yes No
2016TG55 O C H 2016-10-30.10968 1.000E-05 22:55:33.160 1.500E-01 0.500 F -0.112 0.195 +11° 50' 44.30" 1.000E-01 0.500 F 0.134 -0.219 o 691 0.60 Yes No
Cuno O C 2016-10-30.11141 1.000E-05 23:19:56.390 1.500E-01 0.500 F -0.146 0.098 +04° 58' 51.90" 1.000E-01 0.500 F 0.197 0.543 o 691 1.10 Yes No
2016UW35 O C H 2016-10-30.11141 1.000E-05 23:22:23.820 1.500E-01 0.500 F -0.117 -0.465 +04° 30' 38.40" 1.000E-01 0.500 F 0.244 0.360 20.9 V 0.70 0.07 o 691 1.21 Yes Yes
2016LZ10 O C H 2016-10-30.11347 1.000E-05 23:32:10.640 1.500E-01 0.500 F -0.098 -0.293 +02° 02' 04.80" 1.000E-01 0.500 F 0.305 0.135 20.4 V 0.70 0.04 o 691 0.65 Yes Yes
Cuno O C 2016-10-30.11714 1.000E-05 23:19:56.170 1.500E-01 0.500 F -0.146 -0.060 +04° 58' 49.30" 1.000E-01 0.500 F 0.197 -0.028 o 691 0.13 Yes No
2016UW35 O C H 2016-10-30.11714 1.000E-05 23:22:24.600 1.500E-01 0.500 F -0.117 0.472 +04° 30' 01.00" 1.000E-01 0.500 F 0.244 -0.169 21.0 V 0.70 0.17 o 691 1.03 Yes Yes
2016LZ10 O C H 2016-10-30.11923 1.000E-05 23:32:11.400 1.500E-01 0.500 F -0.098 -0.111 +02° 02' 04.40" 1.000E-01 0.500 F 0.305 -0.346 20.5 V 0.70 0.14 o 691 0.73 Yes Yes
2016TG55 O C H 2016-10-30.12118 1.000E-05 22:55:17.840 1.500E-01 0.500 F -0.112 0.055 +11° 51' 56.40" 1.000E-01 0.500 F 0.134 -0.896 o 691 1.83 Yes No
Cuno O C 2016-10-30.12293 1.000E-05 23:19:55.960 1.500E-01 0.500 F -0.146 -0.035 +04° 58' 47.20" 1.000E-01 0.500 F 0.197 -0.077 o 691 0.17 Yes No

[1-200] [201-400] [401-600] [601-800] [801-1000] [1001-1200] [1201-1400] [1401-1600] [1601-1800] [1801-2000] [2001-2200] [2201-2400] [2401-2600] [2601-2800] [2801-3000] [3001-3200] [3201-3400] [3401-3600] [3601-3800] [3801-4000] [4001-4200] [4201-4400] [4401-4600] [4601-4800] [4801-5000] [5001-5200] [5201-5400] [5401-5600] [5601-5800] [5801-6000] [6001-6200] [6201-6400] [6401-6600] [6601-6800] [6801-7000] [7001-7200] [7201-7400] [7401-7600] [7601-7800] [7801-8000] [8001-8200] [8201-8400] [8401-8600] [8601-8800] [8801-9000] [9001-9200] [9201-9400] [9401-9600] [9601-9800] [9801-10000] [10001-10200] [10201-10400] [10401-10600] [10601-10800] [10801-11000] [11001-11200] [11201-11400] [11401-11600] [11601-11800] [11801-12000] [12001-12200] [12201-12400] [12401-12600] [12601-12800] [12801-13000] [13001-13200] [13201-13400] [13401-13600] [13601-13800] [13801-14000] [14001-14200] [14201-14400] [14401-14600] [14601-14800] [14801-15000] [15001-15200] [15201-15400] [15401-15600] [15601-15800] [15801-16000] [16001-16200] [16201-16400] [16401-16600] [16601-16800] [16801-17000] [17001-17200] [17201-17400] [17401-17600] [17601-17800] [17801-18000] [18001-18200] [18201-18400] [18401-18600] [18601-18800] [18801-19000] [19001-19200] [19201-19400] [19401-19600] [19601-19800] [19801-20000] [20001-20200] [20201-20400] [20401-20600] [20601-20800] [20801-21000] [21001-21200] [21201-21400] [21401-21600] [21601-21800] [21801-22000] [22001-22200] [22201-22400] [22401-22600] [22601-22800] [22801-23000] [23001-23200] [23201-23400] [23401-23600] [23601-23800] [23801-24000] [24001-24200] [24201-24400] [24401-24600] [24601-24800] [24801-25000] [25001-25200] [25201-25400] [25401-25600] [25601-25800] [25801-26000] [26001-26200] [26201-26400] [26401-26600] [26601-26800] [26801-27000] [27001-27200] [27201-27400] [27401-27600] [27601-27800] [27801-28000] [28001-28200] [28201-28400] [28401-28600] [28601-28800] [28801-29000] [29001-29200] [29201-29400] [29401-29600] [29601-29800] [29801-30000] [30001-30200] [30201-30400] [30401-30600] [30601-30800] [30801-31000] [31001-31200] [31201-31400] [31401-31600] [31601-31800] [31801-32000] [32001-32200] [32201-32400] [32401-32600] [32601-32800] [32801-33000] [33001-33200] [33201-33400] [33401-33600] [33601-33800] [33801-34000] [34001-34200] [34201-34400] [34401-34600] [34601-34800] [34801-35000] [35001-35200] [35201-35400] [35401-35600] [35601-35800] [35801-36000] [36001-36200] [36201-36400] [36401-36600] [36601-36800] [36801-37000] [37001-37200] [37201-37400] [37401-37600] [37601-37800] [37801-38000] [38001-38200] [38201-38400] [38401-38600] [38601-38800] [38801-39000] [39001-39200] [39201-39400] [39401-39600] [39601-39800] [39801-40000] [40001-40200] [40201-40400] [40401-40600] [40601-40800] [40801-41000] [41001-41200] [41201-41400] [41401-41600] [41601-41800] [41801-42000] [42001-42200] [42201-42400] [42401-42600] [42601-42800] [42801-43000] [43001-43200] [43201-43400] [43401-43600] [43601-43800] [43801-44000] [44001-44200] [44201-44400] [44401-44600] [44601-44800] [44801-45000] [45001-45200] [45201-45400] [45401-45600] [45601-45800] [45801-46000] [46001-46200] [46201-46400] [46401-46600] [46601-46800] [46801-47000] [47001-47200] [47201-47400] [47401-47600] [47601-47800] [47801-48000] [48001-48200] [48201-48400] [48401-48600] [48601-48800] [48801-49000] [49001-49200] [49201-49400] [49401-49600] [49601-49800] [49801-50000] [50001-50200] [50201-50388]